Time;durP1;ratioP1;P1;durP2;ratioP2;P2;SDS_P1;SDS_P2;PMS_P1;PMS_P2;Temp;Humidity;BMP_temperature;BMP_pressure;BME280_temperature;BME280_humidity;BME280_pressure;Samples;Min_cycle;Max_cycle;Signal;HPM_P1;HPM_P2
2022/12/13 00:01:24;;;;;;;15.23;10.05;;;-0.20;79.00;;;;;;5035118;28;20028;-66
2022/12/13 00:03:58;;;;;;;19.83;11.52;;;-0.20;79.00;;;;;;5036754;28;20021;-67
2022/12/13 00:06:24;;;;;;;19.63;11.35;;;-0.20;79.00;;;;;;5041425;28;20025;-68
2022/12/13 00:08:50;;;;;;;19.00;11.05;;;-0.20;79.00;;;;;;5045573;28;20036;-67
2022/12/13 00:11:16;;;;;;;20.33;12.02;;;-0.30;78.80;;;;;;5043274;28;20029;-67
2022/12/13 00:13:42;;;;;;;19.13;12.05;;;-0.30;79.00;;;;;;5038929;28;20013;-67
2022/12/13 00:16:12;;;;;;;17.52;11.38;;;-0.30;78.90;;;;;;5029424;28;20029;-67
2022/12/13 00:18:38;;;;;;;20.17;11.70;;;-0.30;79.10;;;;;;5040436;28;20029;-67
2022/12/13 00:21:05;;;;;;;18.60;11.98;;;-0.20;79.00;;;;;;5043253;28;20032;-67
2022/12/13 00:23:31;;;;;;;22.25;12.15;;;-0.30;78.90;;;;;;5040389;28;20013;-67
2022/12/13 00:26:09;;;;;;;19.85;12.45;;;-0.30;78.90;;;;;;5038782;28;20040;-67
2022/12/13 00:28:35;;;;;;;18.48;11.45;;;-0.30;78.90;;;;;;5039328;28;20036;-66
2022/12/13 00:31:01;;;;;;;20.42;11.98;;;-0.30;78.90;;;;;;5040043;28;20030;-68
2022/12/13 00:33:28;;;;;;;21.27;13.13;;;-0.30;79.00;;;;;;5037341;28;20025;-67
2022/12/13 00:35:54;;;;;;;23.10;13.65;;;-0.30;78.90;;;;;;5041886;28;20021;-67
2022/12/13 00:38:20;;;;;;;20.80;12.93;;;-0.30;78.90;;;;;;5043470;28;20026;-66
2022/12/13 00:40:45;;;;;;;22.25;13.38;;;-0.40;78.80;;;;;;5043452;28;20047;-67
2022/12/13 00:43:11;;;;;;;19.52;11.75;;;-0.40;79.10;;;;;;5029770;28;20136;-66
2022/12/13 00:45:37;;;;;;;19.88;12.68;;;-0.50;79.30;;;;;;5029483;28;20531;-67
2022/12/13 00:48:06;;;;;;;17.70;11.23;;;-0.40;79.30;;;;;;5038113;28;20032;-66
2022/12/13 00:50:32;;;;;;;17.92;11.50;;;-0.50;79.10;;;;;;5030272;28;21269;-66
2022/12/13 00:52:58;;;;;;;20.50;12.18;;;-0.60;79.30;;;;;;5038331;28;20018;-67
2022/12/13 00:55:24;;;;;;;18.88;12.07;;;-0.60;79.30;;;;;;5041388;28;20082;-67
2022/12/13 00:57:50;;;;;;;21.80;13.73;;;-0.60;79.40;;;;;;5041368;28;20029;-67
2022/12/13 01:00:16;;;;;;;21.33;12.73;;;-0.60;79.20;;;;;;5044839;28;20029;-66
2022/12/13 01:02:42;;;;;;;19.73;12.43;;;-0.60;79.20;;;;;;5040093;28;20040;-66
2022/12/13 01:05:08;;;;;;;18.48;11.07;;;-0.60;79.30;;;;;;5044322;28;20030;-66
2022/12/13 01:07:35;;;;;;;21.95;13.07;;;-0.60;79.30;;;;;;5047318;28;20107;-66
2022/12/13 01:10:01;;;;;;;18.50;12.05;;;-0.60;79.30;;;;;;5049162;28;20032;-66
2022/12/13 01:12:26;;;;;;;19.55;11.82;;;-0.50;79.20;;;;;;5040967;28;20022;-66
2022/12/13 01:14:52;;;;;;;19.70;12.38;;;-0.60;79.00;;;;;;5043852;28;20044;-66
2022/12/13 01:17:18;;;;;;;21.80;12.07;;;-0.60;79.00;;;;;;5041650;28;20385;-66
2022/12/13 01:19:43;;;;;;;18.65;11.15;;;-0.60;79.00;;;;;;5050365;28;20025;-66
2022/12/13 01:22:10;;;;;;;20.75;12.65;;;-0.60;79.10;;;;;;5049764;28;20032;-66
2022/12/13 01:24:36;;;;;;;20.48;12.00;;;-0.60;79.20;;;;;;5044654;28;20021;-65
2022/12/13 01:27:01;;;;;;;21.35;12.45;;;-0.60;79.20;;;;;;5039507;28;20083;-66
2022/12/13 01:29:27;;;;;;;18.73;11.90;;;-0.60;79.30;;;;;;5033862;28;20030;-66
2022/12/13 01:31:53;;;;;;;20.85;12.25;;;-0.70;79.30;;;;;;5031494;28;20024;-66
2022/12/13 01:34:20;;;;;;;17.23;10.88;;;-0.70;79.50;;;;;;5041970;28;20028;-67
2022/12/13 01:36:47;;;;;;;20.40;12.65;;;-0.70;80.00;;;;;;5042187;28;20052;-67
2022/12/13 01:39:16;;;;;;;18.08;11.60;;;-0.70;79.40;;;;;;5033888;28;20422;-66
2022/12/13 01:41:43;;;;;;;18.65;11.55;;;-0.70;79.30;;;;;;5032556;28;20083;-66
2022/12/13 01:44:47;;;;;;;18.58;11.68;;;-0.70;79.10;;;;;;5041482;28;20032;-66
2022/12/13 01:47:14;;;;;;;16.50;9.98;;;-0.70;79.40;;;;;;5042188;28;20030;-67
2022/12/13 01:49:40;;;;;;;18.48;11.60;;;-0.70;79.40;;;;;;5032688;28;20025;-67
2022/12/13 01:52:10;;;;;;;21.70;13.20;;;-0.70;79.50;;;;;;5037758;28;20032;-66
2022/12/13 01:54:41;;;;;;;20.38;12.18;;;-0.70;79.70;;;;;;5043950;28;20498;-66
2022/12/13 01:57:09;;;;;;;19.83;13.03;;;-0.70;79.90;;;;;;5041673;28;20113;-66
2022/12/13 01:59:36;;;;;;;19.58;12.32;;;-0.70;79.90;;;;;;5043977;28;20834;-67
2022/12/13 02:02:03;;;;;;;19.75;12.38;;;-0.70;79.80;;;;;;5046145;28;20052;-66
2022/12/13 02:04:47;;;;;;;20.42;13.23;;;-0.60;79.60;;;;;;5031941;28;20052;-66
2022/12/13 02:07:19;;;;;;;19.95;12.52;;;-0.70;79.50;;;;;;5039902;28;20033;-67
2022/12/13 02:09:45;;;;;;;18.98;11.40;;;-0.70;79.70;;;;;;5031007;28;20029;-65
2022/12/13 02:12:11;;;;;;;17.90;11.50;;;-0.70;79.80;;;;;;5039181;28;20060;-65
2022/12/13 02:14:39;;;;;;;21.60;13.50;;;-0.70;79.80;;;;;;5036905;28;20071;-65
2022/12/13 02:17:36;;;;;;;22.67;13.40;;;-0.60;79.80;;;;;;5042745;28;20022;-65
2022/12/13 02:20:23;;;;;;;22.00;12.57;;;-0.70;79.70;;;;;;5036699;28;20041;-64
2022/12/13 02:23:11;;;;;;;24.48;14.98;;;-0.70;79.60;;;;;;5030982;28;20037;-65
2022/12/13 02:26:08;;;;;;;28.52;15.23;;;-0.80;79.60;;;;;;5031476;28;20026;-65
2022/12/13 02:28:46;;;;;;;21.90;13.25;;;-0.90;79.90;;;;;;5044402;28;20047;-65
2022/12/13 02:31:22;;;;;;;21.05;13.35;;;-0.90;80.10;;;;;;5030998;28;20061;-66
2022/12/13 02:34:16;;;;;;;21.80;12.77;;;-0.90;80.80;;;;;;5042698;28;20039;-66
2022/12/13 02:36:59;;;;;;;21.92;11.52;;;-0.80;80.30;;;;;;5042914;28;20029;-65
2022/12/13 02:39:31;;;;;;;18.50;11.55;;;-0.80;80.20;;;;;;5033839;28;20064;-66
2022/12/13 02:42:08;;;;;;;20.10;11.07;;;-0.80;80.20;;;;;;5043663;28;20108;-66
2022/12/13 02:44:40;;;;;;;17.65;11.00;;;-0.80;80.10;;;;;;5043416;28;20021;-66
2022/12/13 02:47:21;;;;;;;22.63;12.98;;;-0.80;80.60;;;;;;5041836;28;20112;-65
2022/12/13 02:49:50;;;;;;;19.33;12.30;;;-0.80;79.90;;;;;;5045534;28;20091;-66
2022/12/13 02:52:20;;;;;;;19.80;11.50;;;-0.80;79.80;;;;;;5044631;28;20022;-66
2022/12/13 02:54:46;;;;;;;19.35;11.95;;;-0.90;79.80;;;;;;5049955;28;20515;-66
2022/12/13 02:57:31;;;;;;;18.85;11.52;;;-0.90;79.90;;;;;;5044215;28;20668;-66
2022/12/13 03:00:05;;;;;;;21.83;12.63;;;-0.90;79.90;;;;;;5041481;28;20498;-66
2022/12/13 03:02:41;;;;;;;21.75;13.48;;;-0.90;80.00;;;;;;5044317;28;20036;-66
2022/12/13 03:08:25;;;;;;;19.23;12.25;;;-0.90;80.00;;;;;;5040428;28;20063;-65
2022/12/13 03:11:05;;;;;;;18.90;11.85;;;-0.90;80.00;;;;;;5043909;28;20034;-65
2022/12/13 03:13:52;;;;;;;17.52;10.65;;;-0.90;80.20;;;;;;5043792;28;20096;-66
2022/12/13 03:16:35;;;;;;;21.77;12.88;;;-1.00;80.20;;;;;;5040699;28;20115;-65
2022/12/13 03:19:04;;;;;;;19.25;11.60;;;-0.90;80.20;;;;;;5044648;28;20032;-65
2022/12/13 03:21:38;;;;;;;21.30;12.95;;;-1.00;80.10;;;;;;5039430;28;20037;-66
2022/12/13 03:24:04;;;;;;;20.38;12.25;;;-1.00;80.20;;;;;;5037497;28;20017;-65
2022/12/13 03:26:29;;;;;;;22.42;12.27;;;-1.00;80.20;;;;;;5034372;28;20031;-65
2022/12/13 03:28:55;;;;;;;18.30;11.32;;;-1.00;80.20;;;;;;5040391;28;20026;-66
2022/12/13 03:31:21;;;;;;;20.38;12.07;;;-1.00;80.10;;;;;;5044850;28;20510;-65
2022/12/13 03:33:46;;;;;;;20.70;12.48;;;-0.90;80.20;;;;;;5035113;28;20021;-65
2022/12/13 03:36:13;;;;;;;18.50;12.13;;;-1.00;80.00;;;;;;5035376;28;20025;-65
2022/12/13 03:38:39;;;;;;;19.10;11.65;;;-1.00;80.10;;;;;;5041546;28;20095;-66
2022/12/13 03:41:11;;;;;;;19.75;11.63;;;-1.00;80.20;;;;;;5032156;28;20021;-66
2022/12/13 03:43:38;;;;;;;19.25;11.77;;;-1.00;80.20;;;;;;5037984;28;21010;-66
2022/12/13 03:46:04;;;;;;;18.33;11.13;;;-1.00;80.10;;;;;;5044228;28;20064;-66
2022/12/13 03:48:30;;;;;;;22.02;13.25;;;-1.00;80.10;;;;;;5045626;28;20032;-66
2022/12/13 03:50:56;;;;;;;19.35;11.63;;;-1.00;80.10;;;;;;5041454;28;20581;-65
2022/12/13 03:53:23;;;;;;;20.08;11.75;;;-0.90;80.20;;;;;;5034045;28;20052;-65
2022/12/13 03:55:49;;;;;;;20.05;11.50;;;-0.90;80.20;;;;;;5043272;28;20017;-66
2022/12/13 03:58:15;;;;;;;20.88;11.70;;;-0.90;80.20;;;;;;5037415;28;20028;-66
2022/12/13 04:00:40;;;;;;;17.50;11.27;;;-0.90;80.20;;;;;;5045201;28;20375;-65
2022/12/13 04:03:06;;;;;;;22.15;12.57;;;-0.90;80.30;;;;;;5046680;28;20029;-66
2022/12/13 04:05:32;;;;;;;17.85;10.90;;;-0.90;80.30;;;;;;5045281;28;20032;-65
2022/12/13 04:07:57;;;;;;;18.45;11.73;;;-0.90;80.30;;;;;;5048495;28;20036;-66
2022/12/13 04:10:23;;;;;;;20.98;12.85;;;-0.90;80.30;;;;;;5043539;28;20029;-66
2022/12/13 04:15:33;;;;;;;23.50;13.02;;;-0.90;80.20;;;;;;5029872;28;20052;-66
2022/12/13 04:17:59;;;;;;;19.80;12.38;;;-0.90;80.80;;;;;;5045849;28;20021;-66
2022/12/13 04:20:24;;;;;;;21.27;13.13;;;-0.90;80.20;;;;;;5040742;28;20438;-66
2022/12/13 04:22:50;;;;;;;23.90;14.07;;;-0.90;80.20;;;;;;5044128;28;20032;-65
2022/12/13 04:25:16;;;;;;;21.02;12.30;;;-0.90;80.20;;;;;;5046175;28;20033;-66
2022/12/13 04:27:41;;;;;;;19.05;11.60;;;-1.00;80.20;;;;;;5033157;28;20076;-66
2022/12/13 04:30:07;;;;;;;22.40;13.15;;;-0.90;80.20;;;;;;5047981;28;20033;-67
2022/12/13 04:32:33;;;;;;;21.02;13.90;;;-1.00;80.20;;;;;;5045879;28;20029;-66
2022/12/13 04:34:59;;;;;;;21.77;12.93;;;-1.00;80.30;;;;;;5041277;28;20179;-66
2022/12/13 04:37:24;;;;;;;22.25;13.80;;;-1.00;80.40;;;;;;5047861;28;20029;-66
2022/12/13 04:39:50;;;;;;;20.60;12.70;;;-1.00;80.50;;;;;;5045123;28;20076;-66
2022/12/13 04:42:15;;;;;;;20.10;12.70;;;-1.00;80.30;;;;;;5050545;28;20029;-66
2022/12/13 04:44:41;;;;;;;22.65;13.18;;;-1.00;80.50;;;;;;5048035;28;20023;-66
2022/12/13 04:47:07;;;;;;;19.70;11.70;;;-1.00;80.60;;;;;;5037370;28;20013;-67
2022/12/13 04:49:33;;;;;;;23.17;13.95;;;-1.10;80.60;;;;;;5040473;28;20021;-67
2022/12/13 04:51:58;;;;;;;20.02;12.60;;;-1.00;80.80;;;;;;5044032;28;20113;-66
2022/12/13 04:54:24;;;;;;;22.33;13.70;;;-1.10;80.80;;;;;;5050470;28;20013;-68
2022/12/13 04:56:49;;;;;;;19.08;12.15;;;-1.10;80.80;;;;;;5049043;28;20044;-67
2022/12/13 04:59:16;;;;;;;18.98;12.07;;;-1.10;80.80;;;;;;5050183;28;20075;-67
2022/12/13 05:01:41;;;;;;;24.17;13.82;;;-1.10;80.80;;;;;;5042080;28;20476;-68
2022/12/13 05:04:07;;;;;;;19.80;12.07;;;-1.10;81.50;;;;;;5043167;28;20036;-66
2022/12/13 05:06:32;;;;;;;20.17;12.70;;;-1.10;80.80;;;;;;5048800;28;20029;-67
2022/12/13 05:08:58;;;;;;;22.23;12.98;;;-1.10;81.00;;;;;;5046459;28;20025;-67
2022/12/13 05:11:24;;;;;;;22.35;14.05;;;-1.10;81.00;;;;;;5044620;28;20037;-67
2022/12/13 05:13:49;;;;;;;20.95;13.10;;;-1.10;81.00;;;;;;5043778;28;20029;-67
2022/12/13 05:16:15;;;;;;;22.10;14.20;;;-1.10;80.90;;;;;;5042947;28;20029;-67
2022/12/13 05:18:41;;;;;;;21.40;13.13;;;-1.10;80.80;;;;;;5047706;28;20028;-67
2022/12/13 05:21:09;;;;;;;19.25;11.75;;;-1.10;80.90;;;;;;5050280;28;20048;-66
2022/12/13 05:23:35;;;;;;;22.50;13.52;;;-1.10;80.90;;;;;;5046885;28;20071;-67
2022/12/13 05:26:02;;;;;;;19.35;12.18;;;-1.10;80.90;;;;;;5048502;28;20031;-66
2022/12/13 05:28:29;;;;;;;22.35;13.50;;;-1.10;81.00;;;;;;5046096;28;20029;-66
2022/12/13 05:30:57;;;;;;;19.23;11.38;;;-1.10;81.50;;;;;;5047246;28;20029;-66
2022/12/13 05:33:24;;;;;;;19.05;12.00;;;-1.10;80.80;;;;;;5043135;28;20543;-66
2022/12/13 05:35:50;;;;;;;21.83;13.88;;;-1.10;80.80;;;;;;5042324;28;20542;-65
2022/12/13 05:38:15;;;;;;;20.13;12.52;;;-1.10;80.80;;;;;;5041298;28;20018;-66
2022/12/13 05:40:41;;;;;;;20.45;12.32;;;-1.20;80.70;;;;;;5036344;28;20037;-66
2022/12/13 05:43:10;;;;;;;24.52;13.93;;;-1.10;80.80;;;;;;5032274;28;20048;-66
2022/12/13 05:45:35;;;;;;;20.48;12.85;;;-1.20;80.80;;;;;;5032329;28;20699;-66
2022/12/13 05:48:01;;;;;;;24.38;13.73;;;-1.20;80.80;;;;;;5035903;28;20029;-66
2022/12/13 05:50:27;;;;;;;23.10;14.43;;;-1.20;80.80;;;;;;5031660;28;20061;-65
2022/12/13 05:52:52;;;;;;;20.50;12.52;;;-1.20;80.90;;;;;;5037933;28;20022;-66
2022/12/13 05:55:18;;;;;;;25.98;14.70;;;-1.20;80.90;;;;;;5039684;28;20037;-66
2022/12/13 05:57:44;;;;;;;24.42;14.65;;;-1.30;81.00;;;;;;5040918;28;20100;-67
2022/12/13 06:00:10;;;;;;;23.02;13.68;;;-1.30;81.00;;;;;;5048067;28;20025;-67
2022/12/13 06:02:37;;;;;;;23.92;14.85;;;-1.20;81.00;;;;;;5032957;28;20549;-66
2022/12/13 06:05:04;;;;;;;20.17;12.23;;;-1.20;81.00;;;;;;5035268;28;20026;-67
2022/12/13 06:07:30;;;;;;;24.83;15.32;;;-1.20;81.00;;;;;;5041420;28;20028;-66
2022/12/13 06:09:55;;;;;;;29.90;16.48;;;-1.30;81.10;;;;;;5045337;28;20043;-66
2022/12/13 06:12:21;;;;;;;28.00;17.38;;;-1.20;81.30;;;;;;5041559;28;20032;-67
2022/12/13 06:14:46;;;;;;;27.38;16.73;;;-1.30;81.40;;;;;;5040860;28;20412;-67
2022/12/13 06:17:12;;;;;;;28.83;16.23;;;-1.30;81.60;;;;;;5041454;28;20099;-66
2022/12/13 06:19:38;;;;;;;26.30;15.77;;;-1.30;81.70;;;;;;5042222;28;20152;-67
2022/12/13 06:22:03;;;;;;;24.67;14.88;;;-1.30;81.80;;;;;;5037158;28;20033;-66
2022/12/13 06:24:29;;;;;;;22.48;14.15;;;-1.20;81.90;;;;;;5041574;28;20417;-66
2022/12/13 06:26:54;;;;;;;25.35;15.50;;;-1.20;81.90;;;;;;5046194;28;20104;-66
2022/12/13 06:29:21;;;;;;;26.42;15.75;;;-1.30;81.90;;;;;;5038246;28;20037;-65
2022/12/13 06:31:50;;;;;;;30.45;17.98;;;-1.30;82.00;;;;;;5041056;28;20502;-66
2022/12/13 06:34:15;;;;;;;27.45;16.35;;;-1.30;82.10;;;;;;5046358;28;20059;-65
2022/12/13 06:36:41;;;;;;;23.80;14.35;;;-1.30;82.20;;;;;;5045246;28;20042;-66
2022/12/13 06:39:07;;;;;;;26.65;16.33;;;-1.30;82.30;;;;;;5036330;28;20033;-66
2022/12/13 06:41:33;;;;;;;28.75;17.35;;;-1.30;82.30;;;;;;5040205;28;20056;-66
2022/12/13 06:43:59;;;;;;;25.98;16.08;;;-1.20;82.50;;;;;;5037910;28;20045;-66
2022/12/13 06:46:25;;;;;;;26.50;16.73;;;-1.30;82.40;;;;;;5031538;28;20479;-66
2022/12/13 06:48:51;;;;;;;26.27;16.15;;;-1.30;82.50;;;;;;5042873;28;20075;-66
2022/12/13 06:51:18;;;;;;;26.05;16.20;;;-1.30;82.50;;;;;;5050477;28;20483;-66
2022/12/13 06:53:43;;;;;;;26.10;15.52;;;-1.20;82.50;;;;;;5038078;28;20100;-66
2022/12/13 06:56:13;;;;;;;26.38;17.42;;;-1.30;82.60;;;;;;5035344;28;20104;-67
2022/12/13 06:58:40;;;;;;;26.27;16.55;;;-1.30;82.70;;;;;;5044480;28;20025;-67
2022/12/13 07:01:15;;;;;;;28.67;17.83;;;-1.30;82.70;;;;;;5049246;28;20033;-66
2022/12/13 07:03:41;;;;;;;29.50;18.20;;;-1.30;82.80;;;;;;5036296;28;20475;-67
2022/12/13 07:06:12;;;;;;;26.90;16.20;;;-1.30;82.90;;;;;;5039859;28;20017;-66
2022/12/13 07:08:39;;;;;;;31.02;19.15;;;-1.30;82.90;;;;;;5045123;28;20034;-66
2022/12/13 07:11:04;;;;;;;31.52;19.20;;;-1.30;83.00;;;;;;5050302;28;20364;-66
2022/12/13 07:13:30;;;;;;;30.55;18.58;;;-1.40;83.60;;;;;;5041338;28;20043;-68
2022/12/13 07:15:56;;;;;;;29.00;17.60;;;-1.40;83.20;;;;;;5037932;28;20024;-66
2022/12/13 07:18:21;;;;;;;31.42;19.30;;;-1.40;83.30;;;;;;5043142;28;20025;-66
2022/12/13 07:20:47;;;;;;;30.15;18.23;;;-1.40;83.20;;;;;;5040324;28;20108;-65
2022/12/13 07:23:13;;;;;;;29.92;17.90;;;-1.40;83.30;;;;;;5033204;28;20499;-66
2022/12/13 07:25:39;;;;;;;26.65;16.80;;;-1.40;83.40;;;;;;5028292;28;20029;-66
2022/12/13 07:28:07;;;;;;;34.22;20.73;;;-1.40;83.40;;;;;;5044350;28;20025;-66
2022/12/13 07:30:35;;;;;;;29.63;17.23;;;-1.40;83.60;;;;;;5031819;28;20029;-65
2022/12/13 07:33:02;;;;;;;33.50;19.88;;;-1.40;83.60;;;;;;5036970;28;20033;-65
2022/12/13 07:35:29;;;;;;;33.53;19.75;;;-1.40;83.60;;;;;;5049435;28;20542;-65
2022/12/13 07:37:54;;;;;;;32.33;19.10;;;-1.40;83.60;;;;;;5038104;28;20023;-65
2022/12/13 07:40:20;;;;;;;36.45;20.52;;;-1.40;83.60;;;;;;5050039;28;20029;-65
2022/12/13 07:42:53;;;;;;;34.17;19.27;;;-1.40;83.60;;;;;;5044288;28;20032;-66
2022/12/13 07:45:20;;;;;;;31.95;19.73;;;-1.40;83.80;;;;;;5044109;28;20040;-65
2022/12/13 07:47:45;;;;;;;32.50;19.77;;;-1.40;83.80;;;;;;5040413;28;20071;-66
2022/12/13 07:50:11;;;;;;;34.58;20.42;;;-1.40;83.80;;;;;;5047095;28;20434;-66
2022/12/13 07:52:37;;;;;;;35.20;21.85;;;-1.40;83.80;;;;;;5046640;28;20033;-65
2022/12/13 07:55:03;;;;;;;33.70;20.35;;;-1.40;83.80;;;;;;5039785;28;20107;-66
2022/12/13 07:57:30;;;;;;;31.40;18.70;;;-1.40;84.00;;;;;;5047393;28;20025;-66
2022/12/13 07:59:55;;;;;;;34.03;21.52;;;-1.40;84.00;;;;;;5037758;28;20024;-66
2022/12/13 08:02:21;;;;;;;30.35;18.83;;;-1.40;84.00;;;;;;5037573;28;20284;-66
2022/12/13 08:04:47;;;;;;;33.90;20.52;;;-1.40;83.90;;;;;;5045204;28;20021;-65
2022/12/13 08:07:12;;;;;;;31.63;18.90;;;-1.40;84.00;;;;;;5042658;28;20109;-66
2022/12/13 08:09:38;;;;;;;30.60;18.83;;;-1.40;84.10;;;;;;5040258;28;20484;-66
2022/12/13 08:12:04;;;;;;;30.80;18.42;;;-1.40;84.10;;;;;;5037557;28;20705;-66
2022/12/13 08:14:30;;;;;;;36.78;21.05;;;-1.40;84.10;;;;;;5043482;28;20025;-66
2022/12/13 08:16:56;;;;;;;35.40;20.73;;;-1.40;84.10;;;;;;5047130;28;20544;-66
2022/12/13 08:19:21;;;;;;;34.00;20.58;;;-1.50;84.10;;;;;;5041885;28;20025;-65
2022/12/13 08:21:47;;;;;;;32.05;19.48;;;-1.40;84.30;;;;;;5040862;28;20056;-66
2022/12/13 08:24:12;;;;;;;32.65;19.40;;;-1.40;84.30;;;;;;5046904;28;20385;-66
2022/12/13 08:26:38;;;;;;;37.53;20.95;;;-1.40;84.20;;;;;;5044002;28;20024;-67
2022/12/13 08:29:04;;;;;;;37.45;22.77;;;-1.40;84.20;;;;;;5049901;28;20045;-66
2022/12/13 08:31:30;;;;;;;36.20;21.30;;;-1.40;84.30;;;;;;5042079;28;20021;-66
2022/12/13 08:33:56;;;;;;;32.70;19.30;;;-1.40;84.40;;;;;;5037945;28;20101;-66
2022/12/13 08:36:23;;;;;;;37.13;21.60;;;-1.40;84.50;;;;;;5038131;28;21728;-66
2022/12/13 08:38:49;;;;;;;34.88;21.45;;;-1.40;84.50;;;;;;5043220;28;20017;-66
2022/12/13 08:41:15;;;;;;;35.40;21.63;;;-1.40;84.60;;;;;;5044184;28;20083;-66
2022/12/13 08:43:40;;;;;;;33.58;19.83;;;-1.30;84.70;;;;;;5044069;28;20029;-66
2022/12/13 08:46:06;;;;;;;33.25;19.75;;;-1.30;84.70;;;;;;5041820;28;20144;-66
2022/12/13 08:48:32;;;;;;;34.83;20.35;;;-1.30;84.60;;;;;;5044655;28;20186;-67
2022/12/13 08:51:06;;;;;;;36.20;21.13;;;-1.30;84.60;;;;;;5048834;28;20552;-66
2022/12/13 08:53:32;;;;;;;33.50;20.15;;;-1.20;84.60;;;;;;5043954;28;20029;-66
2022/12/13 08:56:03;;;;;;;34.10;20.17;;;-1.10;84.40;;;;;;5043837;28;20030;-66
2022/12/13 08:58:29;;;;;;;32.33;18.52;;;-1.10;84.30;;;;;;5040128;28;20029;-66
2022/12/13 09:00:54;;;;;;;33.97;20.27;;;-1.00;84.20;;;;;;5037604;28;20021;-65
2022/12/13 09:03:20;;;;;;;34.67;20.67;;;-0.90;84.00;;;;;;5034928;28;20038;-66
2022/12/13 09:05:46;;;;;;;36.53;21.70;;;-0.90;83.90;;;;;;5037994;28;20051;-67
2022/12/13 09:08:11;;;;;;;37.60;21.88;;;-0.80;83.90;;;;;;5046141;28;20041;-67
2022/12/13 09:10:37;;;;;;;32.75;18.55;;;-0.80;83.80;;;;;;5042005;28;20025;-67
2022/12/13 09:13:03;;;;;;;33.20;19.45;;;-0.80;83.80;;;;;;5047602;28;20128;-66
2022/12/13 09:15:31;;;;;;;35.28;21.60;;;-0.80;83.70;;;;;;5040142;28;20021;-66
2022/12/13 09:17:56;;;;;;;38.67;22.27;;;-0.80;83.60;;;;;;5039284;28;20025;-66
2022/12/13 09:20:22;;;;;;;37.97;21.40;;;-0.80;83.70;;;;;;5049232;28;20445;-67
2022/12/13 09:22:48;;;;;;;38.45;23.30;;;-0.70;83.70;;;;;;5041567;28;20116;-66
2022/12/13 09:25:14;;;;;;;38.22;22.88;;;-0.70;83.60;;;;;;5041318;28;20128;-67
2022/12/13 09:27:39;;;;;;;43.08;24.45;;;-0.80;83.70;;;;;;5047894;28;20033;-66
2022/12/13 09:30:07;;;;;;;31.83;19.10;;;-0.70;83.80;;;;;;5041791;28;20031;-67
2022/12/13 09:32:33;;;;;;;32.08;20.35;;;-0.70;83.80;;;;;;5040652;28;21657;-67
2022/12/13 09:34:58;;;;;;;35.20;21.92;;;-0.60;83.80;;;;;;5041909;28;20782;-66
2022/12/13 09:37:24;;;;;;;41.03;24.08;;;-0.60;83.60;;;;;;5048876;28;20024;-66
2022/12/13 09:39:50;;;;;;;39.42;24.60;;;-0.60;83.40;;;;;;5044627;28;20086;-66
2022/12/13 09:42:23;;;;;;;39.08;23.13;;;-0.60;83.40;;;;;;5038652;28;20055;-67
2022/12/13 09:44:55;;;;;;;40.30;25.08;;;-0.60;83.30;;;;;;5048695;28;20624;-66
2022/12/13 09:47:52;;;;;;;41.22;24.60;;;-0.60;83.30;;;;;;5041365;28;20036;-66
2022/12/13 09:50:24;;;;;;;38.15;22.50;;;-0.60;83.20;;;;;;5041640;28;20047;-67
2022/12/13 09:52:49;;;;;;;40.55;24.42;;;-0.60;83.10;;;;;;5035542;28;20029;-67
2022/12/13 09:55:20;;;;;;;36.22;22.80;;;-0.60;82.90;;;;;;5043732;28;20021;-66
2022/12/13 09:57:47;;;;;;;38.38;23.70;;;-0.60;82.80;;;;;;5044490;28;20116;-67
2022/12/13 10:00:20;;;;;;;43.05;24.98;;;-0.60;82.70;;;;;;5042075;28;20391;-67
2022/12/13 10:02:51;;;;;;;42.42;24.95;;;-0.60;82.50;;;;;;5039056;28;20025;-67
2022/12/13 10:05:27;;;;;;;41.78;24.58;;;-0.60;83.10;;;;;;5040353;28;20025;-65
2022/12/13 10:07:56;;;;;;;40.10;24.52;;;-0.60;82.30;;;;;;5043312;28;20056;-64
2022/12/13 10:10:23;;;;;;;43.65;25.85;;;-0.60;82.20;;;;;;5035413;28;20029;-66
2022/12/13 10:13:20;;;;;;;44.67;26.35;;;-0.70;81.90;;;;;;5041522;28;20386;-66
2022/12/13 10:16:01;;;;;;;36.50;23.42;;;-0.70;82.00;;;;;;5032676;28;20500;-66
2022/12/13 10:18:39;;;;;;;41.92;25.15;;;-0.70;82.00;;;;;;5036308;28;20032;-66
2022/12/13 10:21:19;;;;;;;41.45;23.52;;;-0.60;81.90;;;;;;5038107;28;20032;-65
2022/12/13 10:23:44;;;;;;;36.40;21.52;;;-0.60;81.80;;;;;;5040117;28;20040;-66
2022/12/13 10:26:12;;;;;;;43.17;26.73;;;-0.60;81.60;;;;;;5048768;28;20434;-66
2022/12/13 10:28:38;;;;;;;36.88;21.58;;;-0.50;81.50;;;;;;5046456;28;20061;-65
2022/12/13 10:31:05;;;;;;;42.55;26.83;;;-0.40;81.40;;;;;;5033155;28;20025;-65
2022/12/13 10:33:34;;;;;;;40.67;24.42;;;-0.50;80.90;;;;;;5039959;28;20025;-65
2022/12/13 10:36:04;;;;;;;38.65;23.35;;;-0.50;80.70;;;;;;5046022;28;20086;-66
2022/12/13 10:38:33;;;;;;;39.53;23.48;;;-0.40;80.90;;;;;;5048474;28;20021;-65
2022/12/13 10:40:59;;;;;;;37.58;23.02;;;-0.40;80.80;;;;;;5039478;28;20018;-65
2022/12/13 10:43:26;;;;;;;32.90;20.10;;;-0.30;80.80;;;;;;5042054;28;20070;-65
2022/12/13 10:45:57;;;;;;;35.83;21.73;;;-0.30;80.80;;;;;;5047075;28;20033;-65
2022/12/13 10:48:48;;;;;;;37.27;22.83;;;-0.30;80.70;;;;;;5046135;28;20649;-66
2022/12/13 10:51:17;;;;;;;42.47;25.52;;;-0.30;80.60;;;;;;5038398;28;20041;-65
2022/12/13 10:53:59;;;;;;;37.15;22.60;;;-0.40;80.40;;;;;;5038880;28;20025;-65
2022/12/13 10:56:38;;;;;;;38.15;23.50;;;-0.30;80.50;;;;;;5044680;28;20021;-64
2022/12/13 10:59:37;;;;;;;35.88;20.77;;;-0.30;80.50;;;;;;5044278;28;20021;-65
2022/12/13 11:02:35;;;;;;;37.22;22.42;;;-0.30;80.50;;;;;;5031633;28;20297;-65
2022/12/13 11:05:22;;;;;;;39.13;22.70;;;-0.20;80.40;;;;;;5042968;28;20111;-65
2022/12/13 11:07:48;;;;;;;37.88;23.25;;;-0.20;80.20;;;;;;5042718;28;20029;-65
2022/12/13 11:10:28;;;;;;;36.30;22.42;;;-0.20;80.10;;;;;;5038456;28;20036;-64
2022/12/13 11:13:01;;;;;;;38.63;23.58;;;-0.10;80.20;;;;;;5041143;28;20020;-65
2022/12/13 11:15:29;;;;;;;41.03;22.55;;;-0.10;80.00;;;;;;5043512;28;20017;-64
2022/12/13 11:18:01;;;;;;;37.17;21.90;;;-0.10;79.60;;;;;;5040689;28;20499;-66
2022/12/13 11:20:33;;;;;;;34.67;20.83;;;0.00;79.60;;;;;;5035192;28;20040;-65
2022/12/13 11:23:07;;;;;;;32.72;19.70;;;0.00;79.50;;;;;;5043040;28;20069;-65
2022/12/13 11:25:39;;;;;;;33.65;19.27;;;0.10;79.50;;;;;;5032968;28;20029;-65
2022/12/13 11:28:16;;;;;;;38.17;22.70;;;0.10;79.30;;;;;;5044596;28;20430;-66
2022/12/13 11:31:19;;;;;;;35.85;23.38;;;0.10;79.00;;;;;;5045997;28;20504;-67
2022/12/13 11:34:16;;;;;;;38.80;23.50;;;0.10;78.70;;;;;;5040156;28;20403;-66
2022/12/13 11:36:56;;;;;;;34.72;21.15;;;0.10;78.60;;;;;;5038827;28;20021;-65
2022/12/13 11:39:30;;;;;;;38.53;23.13;;;0.10;78.70;;;;;;5042577;28;20021;-64
2022/12/13 11:42:14;;;;;;;33.75;21.08;;;0.10;78.70;;;;;;5043006;28;20014;-68
2022/12/13 11:45:18;;;;;;;30.52;19.52;;;0.10;78.60;;;;;;5041088;28;20025;-65
2022/12/13 11:48:09;;;;;;;31.10;19.40;;;0.20;78.70;;;;;;5025368;28;20168;-65
2022/12/13 11:50:39;;;;;;;34.95;21.48;;;0.30;78.50;;;;;;5033698;28;20108;-66
2022/12/13 11:53:20;;;;;;;36.47;22.88;;;0.40;78.40;;;;;;5040697;28;20530;-65
2022/12/13 11:55:59;;;;;;;35.42;21.20;;;0.30;78.10;;;;;;5033598;28;20018;-66
2022/12/13 11:58:35;;;;;;;32.38;20.13;;;0.30;78.30;;;;;;5047163;28;20025;-65
2022/12/13 12:01:30;;;;;;;36.22;21.73;;;0.40;78.20;;;;;;5042450;28;20036;-65
2022/12/13 12:04:12;;;;;;;30.63;19.00;;;0.30;78.10;;;;;;5035762;28;20489;-67
2022/12/13 12:06:47;;;;;;;33.53;20.40;;;0.40;78.20;;;;;;5038877;28;20024;-65
2022/12/13 12:09:18;;;;;;;29.50;18.25;;;0.40;78.00;;;;;;5039829;28;20025;-65
2022/12/13 12:12:00;;;;;;;35.28;21.77;;;0.40;78.00;;;;;;5037382;28;20437;-65
2022/12/13 12:14:43;;;;;;;34.33;19.92;;;0.40;77.70;;;;;;5036788;28;20017;-66
2022/12/13 12:17:13;;;;;;;33.20;20.27;;;0.40;77.70;;;;;;5035344;28;20029;-65
2022/12/13 12:19:42;;;;;;;36.42;22.77;;;0.40;77.40;;;;;;5044863;28;20485;-65
2022/12/13 12:22:14;;;;;;;33.97;20.45;;;0.40;77.50;;;;;;5037532;28;20033;-66
2022/12/13 12:24:46;;;;;;;37.90;23.13;;;0.60;78.30;;;;;;5043815;28;20407;-65
2022/12/13 12:27:27;;;;;;;30.88;19.48;;;1.10;77.60;;;;;;5036964;28;20037;-65
2022/12/13 12:30:15;;;;;;;34.55;21.38;;;1.70;77.40;;;;;;5042004;28;20025;-65
2022/12/13 12:32:52;;;;;;;32.80;19.67;;;2.10;75.60;;;;;;5043312;28;20072;-65
2022/12/13 12:35:26;;;;;;;36.13;22.55;;;2.30;74.40;;;;;;5043036;28;20017;-64
2022/12/13 12:38:10;;;;;;;34.30;20.58;;;2.20;72.40;;;;;;5045447;28;20025;-65
2022/12/13 12:41:10;;;;;;;29.83;18.42;;;1.80;73.10;;;;;;5042158;28;20031;-65
2022/12/13 12:43:41;;;;;;;29.52;18.30;;;1.70;74.20;;;;;;5038016;28;20033;-65
2022/12/13 12:46:25;;;;;;;31.67;19.27;;;1.60;74.50;;;;;;5039562;28;20047;-65
2022/12/13 12:49:22;;;;;;;25.80;16.15;;;1.50;74.50;;;;;;5040730;28;20033;-65